createdAt,value
2018-03-24T00:01:16.883Z,84.00
2018-03-24T00:03:45.470Z,84.00
2018-03-24T00:06:13.965Z,84.10
2018-03-24T00:08:42.440Z,83.10
2018-03-24T00:11:11.223Z,83.80
2018-03-24T00:13:40.697Z,83.50
2018-03-24T00:16:09.343Z,84.00
2018-03-24T00:18:37.492Z,83.60
2018-03-24T00:21:06.144Z,83.00
2018-03-24T00:23:35.047Z,82.60
2018-03-24T00:26:04.692Z,82.60
2018-03-24T00:28:33.241Z,82.60
2018-03-24T00:31:02.350Z,82.80
2018-03-24T00:33:31.016Z,82.80
2018-03-24T00:35:59.002Z,82.10
2018-03-24T00:38:27.160Z,81.80
2018-03-24T00:40:55.603Z,81.90
2018-03-24T00:43:24.608Z,81.60
2018-03-24T00:45:53.958Z,82.40
2018-03-24T00:48:22.733Z,82.60
2018-03-24T00:50:52.088Z,82.50
2018-03-24T00:53:20.408Z,82.60
2018-03-24T00:55:48.703Z,82.10
2018-03-24T00:58:17.078Z,83.20
2018-03-24T01:00:45.667Z,82.40
2018-03-24T01:03:14.072Z,82.50
2018-03-24T01:05:44.469Z,81.90
2018-03-24T01:08:12.903Z,81.80
2018-03-24T01:10:42.327Z,82.30
2018-03-24T01:13:11.851Z,82.10
2018-03-24T01:15:40.383Z,81.80
2018-03-24T01:18:09.010Z,82.00
2018-03-24T01:20:37.500Z,81.70
2018-03-24T01:23:05.786Z,82.40
2018-03-24T01:25:34.149Z,82.20
2018-03-24T01:28:03.027Z,82.20
2018-03-24T01:30:32.536Z,82.00
2018-03-24T01:33:01.348Z,82.00
2018-03-24T01:35:29.637Z,83.10
2018-03-24T01:37:58.707Z,84.70
2018-03-24T01:40:26.278Z,83.60
2018-03-24T01:42:53.824Z,82.30
2018-03-24T01:45:21.382Z,81.40
2018-03-24T01:47:48.926Z,82.00
2018-03-24T01:50:16.679Z,84.20
2018-03-24T01:52:44.968Z,82.40
2018-03-24T01:55:13.552Z,79.70
2018-03-24T01:57:42.646Z,79.90
2018-03-24T02:00:11.163Z,79.90
2018-03-24T02:02:39.814Z,80.20
2018-03-24T02:05:08.408Z,80.30
2018-03-24T02:07:36.576Z,80.90
2018-03-24T02:10:04.985Z,80.40
2018-03-24T02:12:33.449Z,80.60
2018-03-24T02:15:01.829Z,81.00
2018-03-24T02:17:30.285Z,80.70
2018-03-24T02:19:58.791Z,81.60
2018-03-24T02:22:27.037Z,81.80
2018-03-24T02:24:57.170Z,81.50
2018-03-24T02:27:25.343Z,82.20
2018-03-24T02:29:55.648Z,82.60
2018-03-24T02:32:24.057Z,81.90
2018-03-24T02:34:51.639Z,81.80
2018-03-24T02:37:19.231Z,81.20
2018-03-24T02:39:47.384Z,81.20
2018-03-24T02:42:15.398Z,81.20
2018-03-24T02:44:43.772Z,81.30
2018-03-24T02:47:12.051Z,82.40
2018-03-24T02:49:40.196Z,81.10
2018-03-24T02:52:09.097Z,81.80
2018-03-24T02:54:37.107Z,81.90
2018-03-24T02:57:05.523Z,81.40
2018-03-24T02:59:33.986Z,80.90
2018-03-24T03:02:02.339Z,81.00
2018-03-24T03:04:30.742Z,80.70
2018-03-24T03:07:00.091Z,81.70
2018-03-24T03:09:28.527Z,81.70
2018-03-24T03:11:56.925Z,80.90
2018-03-24T03:14:26.100Z,81.20
2018-03-24T03:16:55.140Z,81.00
2018-03-24T03:19:23.761Z,80.20
2018-03-24T03:21:53.811Z,80.10
2018-03-24T03:24:21.772Z,80.00
2018-03-24T03:26:50.064Z,80.00
2018-03-24T03:29:19.106Z,79.00
2018-03-24T03:31:51.276Z,79.00
2018-03-24T03:34:19.725Z,79.10
2018-03-24T03:36:47.903Z,78.60
2018-03-24T03:39:17.019Z,77.70
2018-03-24T03:41:44.949Z,77.80
2018-03-24T03:44:13.668Z,77.80
2018-03-24T03:46:42.304Z,77.80
2018-03-24T03:49:11.012Z,78.20
2018-03-24T03:51:39.854Z,79.10
2018-03-24T03:54:08.135Z,79.10
2018-03-24T03:56:36.229Z,79.10
2018-03-24T03:59:06.578Z,79.00
2018-03-24T04:01:35.162Z,77.30
2018-03-24T04:04:03.320Z,76.80
2018-03-24T04:06:32.608Z,77.10
2018-03-24T04:09:01.902Z,77.10
2018-03-24T04:11:30.926Z,77.70
2018-03-24T04:13:58.917Z,77.70
2018-03-24T04:16:27.236Z,77.40
2018-03-24T04:18:55.173Z,77.50
2018-03-24T04:21:23.372Z,77.30
2018-03-24T04:23:51.875Z,77.80
2018-03-24T04:26:20.202Z,77.50
2018-03-24T04:28:47.767Z,77.20
2018-03-24T04:31:15.314Z,77.30
2018-03-24T04:33:42.852Z,77.70
2018-03-24T04:36:10.397Z,77.90
2018-03-24T04:38:38.704Z,77.70
2018-03-24T04:41:06.232Z,77.70
2018-03-24T04:43:34.017Z,77.60
2018-03-24T04:46:02.206Z,77.40
2018-03-24T04:48:30.776Z,77.40
2018-03-24T04:50:59.076Z,77.60
2018-03-24T04:53:27.006Z,77.80
2018-03-24T04:55:55.026Z,78.00
2018-03-24T04:58:22.836Z,77.70
2018-03-24T05:00:52.512Z,77.60
2018-03-24T05:03:20.162Z,77.60
2018-03-24T05:05:47.947Z,77.30
2018-03-24T05:08:15.769Z,76.70
2018-03-24T05:10:43.804Z,78.80
2018-03-24T05:13:12.567Z,78.70
2018-03-24T05:15:41.579Z,78.60
2018-03-24T05:18:10.012Z,79.30
2018-03-24T05:20:38.925Z,78.80
2018-03-24T05:23:06.774Z,78.00
2018-03-24T05:25:34.615Z,78.20
2018-03-24T05:28:02.808Z,78.30
2018-03-24T05:30:30.407Z,78.10
2018-03-24T05:33:00.265Z,78.80
2018-03-24T05:35:29.091Z,78.80
2018-03-24T05:37:56.909Z,78.50
2018-03-24T05:40:24.682Z,78.30
2018-03-24T05:42:52.452Z,78.40
2018-03-24T05:45:20.019Z,79.20
2018-03-24T05:47:47.739Z,79.20
2018-03-24T05:50:15.668Z,78.40
2018-03-24T05:52:44.267Z,79.30
2018-03-24T05:55:13.456Z,79.30
2018-03-24T05:57:41.074Z,77.30
2018-03-24T06:00:08.874Z,78.40
2018-03-24T06:02:36.543Z,77.70
2018-03-24T06:05:05.664Z,77.30
2018-03-24T06:07:34.390Z,77.40
2018-03-24T06:10:02.894Z,77.40
2018-03-24T06:12:31.296Z,76.50
2018-03-24T06:15:00.172Z,76.00
2018-03-24T06:17:27.998Z,76.10
2018-03-24T06:19:56.288Z,76.40
2018-03-24T06:22:24.201Z,75.90
2018-03-24T06:24:53.167Z,74.90
2018-03-24T06:27:21.005Z,74.90
2018-03-24T06:29:48.997Z,74.80
2018-03-24T06:32:16.545Z,74.20
2018-03-24T06:34:44.121Z,73.60
2018-03-24T06:37:15.731Z,73.40
2018-03-24T06:39:43.313Z,72.80
2018-03-24T06:42:11.090Z,72.00
2018-03-24T06:44:39.052Z,71.60
2018-03-24T06:47:06.949Z,71.50
2018-03-24T06:49:35.933Z,71.80
2018-03-24T06:52:03.494Z,71.80
2018-03-24T06:54:31.331Z,71.70
2018-03-24T06:56:58.901Z,71.30
2018-03-24T06:59:26.775Z,71.50
2018-03-24T07:01:54.373Z,70.80
2018-03-24T07:04:23.094Z,70.60
2018-03-24T07:06:50.639Z,70.20
2018-03-24T07:09:18.232Z,69.00
2018-03-24T07:11:45.767Z,68.60
2018-03-24T07:14:13.334Z,68.60
2018-03-24T07:16:41.878Z,66.30
2018-03-24T07:19:09.427Z,65.50
2018-03-24T07:21:36.947Z,63.90
2018-03-24T07:24:04.515Z,64.00
2018-03-24T07:26:32.057Z,64.40
2018-03-24T07:28:59.650Z,62.50
2018-03-24T07:31:27.176Z,62.10
2018-03-24T07:33:54.729Z,60.40
2018-03-24T07:36:22.374Z,61.40
2018-03-24T07:38:50.166Z,61.70
2018-03-24T07:41:18.715Z,62.40
2018-03-24T07:43:46.290Z,64.80
2018-03-24T07:46:14.856Z,66.00
2018-03-24T07:48:42.435Z,66.50
2018-03-24T07:51:10.093Z,69.40
2018-03-24T07:53:37.679Z,72.00
2018-03-24T07:56:05.223Z,71.80
2018-03-24T07:58:32.823Z,72.00
2018-03-24T08:01:00.773Z,72.30
2018-03-24T08:03:28.362Z,73.70
2018-03-24T08:05:56.568Z,68.10
2018-03-24T08:08:25.182Z,67.70
2018-03-24T08:10:52.709Z,67.40
2018-03-24T08:13:20.300Z,66.30
2018-03-24T08:15:48.724Z,64.10
2018-03-24T08:18:16.449Z,53.50
2018-03-24T08:20:44.926Z,49.60
2018-03-24T08:23:12.471Z,48.90
2018-03-24T08:25:42.273Z,46.80
2018-03-24T08:28:09.860Z,45.10
2018-03-24T08:30:37.695Z,46.00
2018-03-24T08:33:05.239Z,46.50
2018-03-24T08:35:34.514Z,45.30
2018-03-24T08:38:04.401Z,45.00
2018-03-24T08:40:31.940Z,44.30
2018-03-24T08:42:59.782Z,44.60
2018-03-24T08:45:27.382Z,44.50
2018-03-24T08:47:54.995Z,43.70
2018-03-24T08:50:22.793Z,42.70
2018-03-24T08:52:51.325Z,42.40
2018-03-24T08:55:18.885Z,41.80
2018-03-24T08:57:47.177Z,41.60
2018-03-24T09:00:14.732Z,41.60
2018-03-24T09:02:42.291Z,42.20
2018-03-24T09:05:10.310Z,40.50
2018-03-24T09:07:38.740Z,39.40
2018-03-24T09:10:07.154Z,40.80
2018-03-24T09:12:36.215Z,39.00
2018-03-24T09:15:04.732Z,38.40
2018-03-24T09:17:33.215Z,38.80
2018-03-24T09:20:01.778Z,37.90
2018-03-24T09:22:30.235Z,40.50
2018-03-24T09:24:58.746Z,39.60
2018-03-24T09:27:27.173Z,40.20
2018-03-24T09:29:55.585Z,39.40
2018-03-24T09:32:24.368Z,37.30
2018-03-24T09:34:52.764Z,36.40
2018-03-24T09:37:21.354Z,37.50
2018-03-24T09:39:49.871Z,37.70
2018-03-24T09:42:18.380Z,50.10
2018-03-24T09:44:47.397Z,58.50
2018-03-24T09:47:15.881Z,58.20
2018-03-24T09:49:44.240Z,59.40
2018-03-24T09:52:12.736Z,57.90
2018-03-24T09:54:41.084Z,57.00
2018-03-24T09:57:09.775Z,58.70
2018-03-24T09:59:38.390Z,59.50
2018-03-24T10:02:07.749Z,63.20
2018-03-24T10:04:36.199Z,63.10
2018-03-24T10:07:04.544Z,65.20
2018-03-24T10:09:32.689Z,66.20
2018-03-24T10:12:06.127Z,66.70
2018-03-24T10:14:39.628Z,66.60
2018-03-24T10:17:08.166Z,66.00
2018-03-24T10:19:36.488Z,66.60
2018-03-24T10:22:22.756Z,66.70
2018-03-24T10:24:51.768Z,67.60
2018-03-24T10:27:20.029Z,67.70
2018-03-24T10:29:49.047Z,67.80
2018-03-24T10:32:17.619Z,69.30
2018-03-24T10:34:46.616Z,69.50
2018-03-24T10:37:15.034Z,69.40
2018-03-24T10:39:43.568Z,70.50
2018-03-24T10:42:11.882Z,68.80
2018-03-24T10:44:40.261Z,70.50
2018-03-24T10:47:08.741Z,67.90
2018-03-24T10:49:36.659Z,68.10
2018-03-24T10:52:05.047Z,69.40
2018-03-24T10:54:33.681Z,67.00
2018-03-24T10:57:02.493Z,66.00
2018-03-24T10:59:31.032Z,64.00
2018-03-24T11:02:00.092Z,65.10
2018-03-24T11:04:28.063Z,64.70
2018-03-24T11:06:56.221Z,62.80
2018-03-24T11:09:24.331Z,61.70
2018-03-24T11:11:53.828Z,61.00
2018-03-24T11:14:21.464Z,60.90
2018-03-24T11:16:50.683Z,60.30
2018-03-24T11:19:19.271Z,60.10
2018-03-24T11:21:47.496Z,62.30
2018-03-24T11:24:15.870Z,61.20
2018-03-24T11:26:44.223Z,59.60
2018-03-24T11:29:12.590Z,59.90
2018-03-24T11:31:40.829Z,56.40
2018-03-24T11:34:10.231Z,55.20
2018-03-24T11:36:38.210Z,54.40
2018-03-24T11:39:05.774Z,54.90
2018-03-24T11:41:33.367Z,53.70
2018-03-24T11:44:00.972Z,54.90
2018-03-24T11:46:29.555Z,51.70
2018-03-24T11:48:57.122Z,51.60
2018-03-24T11:51:25.604Z,53.10
2018-03-24T11:53:53.160Z,51.70
2018-03-24T11:56:20.742Z,51.80
2018-03-24T11:58:48.282Z,50.10
2018-03-24T12:01:15.876Z,49.00
2018-03-24T12:03:43.418Z,47.60
2018-03-24T12:06:11.113Z,48.30
2018-03-24T12:08:38.840Z,49.50
2018-03-24T12:11:06.379Z,47.90
2018-03-24T12:13:33.939Z,48.60
2018-03-24T12:16:02.431Z,48.90
2018-03-24T12:18:30.394Z,48.50
2018-03-24T12:20:58.363Z,47.10
2018-03-24T12:23:26.950Z,47.00
2018-03-24T12:25:56.848Z,45.80
2018-03-24T12:28:30.755Z,45.50
2018-03-24T12:31:04.112Z,45.20
2018-03-24T12:33:33.444Z,44.60
2018-03-24T12:36:01.141Z,44.80
2018-03-24T12:38:28.714Z,43.70
2018-03-24T12:40:56.464Z,43.40
2018-03-24T12:43:24.226Z,44.20
2018-03-24T12:45:51.783Z,44.60
2018-03-24T12:48:19.350Z,43.20
2018-03-24T12:50:48.950Z,42.40
2018-03-24T12:53:16.533Z,42.00
2018-03-24T12:55:44.405Z,41.00
2018-03-24T12:58:12.369Z,41.00
2018-03-24T13:00:40.095Z,42.00
2018-03-24T13:03:08.116Z,41.20
2018-03-24T13:05:36.277Z,41.60
2018-03-24T13:08:03.920Z,39.30
2018-03-24T13:10:31.630Z,38.60
2018-03-24T13:12:59.298Z,38.80
2018-03-24T13:15:27.504Z,39.50
2018-03-24T13:17:55.195Z,39.70
2018-03-24T13:20:23.584Z,39.80
2018-03-24T13:22:52.533Z,40.60
2018-03-24T13:25:20.713Z,40.50
2018-03-24T13:27:50.185Z,40.30
2018-03-24T13:30:18.511Z,39.70
2018-03-24T13:32:46.073Z,40.50
2018-03-24T13:35:13.983Z,42.40
2018-03-24T13:37:42.308Z,40.50
2018-03-24T13:40:10.548Z,40.90
2018-03-24T13:42:38.844Z,40.30
2018-03-24T13:45:06.836Z,40.10
2018-03-24T13:47:34.610Z,39.60
2018-03-24T13:50:02.223Z,39.30
2018-03-24T13:52:30.219Z,39.80
2018-03-24T13:54:57.904Z,39.60
2018-03-24T13:57:25.439Z,39.80
2018-03-24T13:59:52.991Z,39.10
2018-03-24T14:02:21.690Z,38.00
2018-03-24T14:04:49.262Z,38.50
2018-03-24T14:07:16.905Z,38.10
2018-03-24T14:09:45.290Z,36.50
2018-03-24T14:12:13.667Z,37.90
2018-03-24T14:14:41.238Z,38.50
2018-03-24T14:17:08.962Z,38.10
2018-03-24T14:19:37.349Z,37.10
2018-03-24T14:22:05.165Z,37.10
2018-03-24T14:24:33.711Z,36.80
2018-03-24T14:27:01.800Z,36.10
2018-03-24T14:29:29.343Z,35.80
2018-03-24T14:31:57.154Z,35.70
2018-03-24T14:34:25.100Z,35.80
2018-03-24T14:36:52.648Z,35.40
2018-03-24T14:39:21.255Z,35.50
2018-03-24T14:41:48.825Z,34.90
2018-03-24T14:44:16.534Z,36.70
2018-03-24T14:46:44.112Z,37.50
2018-03-24T14:49:11.650Z,36.10
2018-03-24T14:51:39.514Z,35.80
2018-03-24T14:54:07.569Z,35.40
2018-03-24T14:56:35.839Z,35.40
2018-03-24T14:59:04.440Z,37.10
2018-03-24T15:01:33.780Z,36.60
2018-03-24T15:04:01.571Z,36.50
2018-03-24T15:06:29.245Z,37.80
2018-03-24T15:08:57.238Z,38.10
2018-03-24T15:11:26.366Z,38.40
2018-03-24T15:13:53.977Z,39.40
2018-03-24T15:16:22.172Z,38.50
2018-03-24T15:18:50.655Z,38.10
2018-03-24T15:21:20.986Z,37.10
2018-03-24T15:23:49.171Z,36.40
2018-03-24T15:26:17.117Z,36.70
2018-03-24T15:28:57.284Z,36.50
2018-03-24T15:31:36.798Z,36.10
2018-03-24T15:34:17.518Z,36.60
2018-03-24T15:36:47.534Z,36.60
2018-03-24T15:39:16.751Z,36.10
2018-03-24T15:41:44.985Z,36.10
2018-03-24T15:44:13.135Z,36.30
2018-03-24T15:46:41.687Z,35.70
2018-03-24T15:49:09.879Z,36.60
2018-03-24T15:51:40.248Z,36.60
2018-03-24T15:54:08.551Z,37.30
2018-03-24T15:56:36.560Z,39.20
2018-03-24T15:59:05.651Z,41.30
2018-03-24T16:01:34.061Z,41.30
2018-03-24T16:04:01.931Z,43.70
2018-03-24T16:06:29.961Z,44.20
2018-03-24T16:08:58.900Z,45.90
2018-03-24T16:11:27.054Z,45.90
2018-03-24T16:13:56.052Z,46.00
2018-03-24T16:16:24.378Z,45.30
2018-03-24T16:18:53.194Z,46.50
2018-03-24T16:21:22.347Z,46.70
2018-03-24T16:23:50.269Z,46.70
2018-03-24T16:26:18.348Z,46.60
2018-03-24T16:28:45.972Z,47.50
2018-03-24T16:31:14.580Z,47.90
2018-03-24T16:33:42.858Z,47.90
2018-03-24T16:36:11.040Z,48.10
2018-03-24T16:38:39.506Z,48.50
2018-03-24T16:41:07.772Z,48.90
2018-03-24T16:43:36.549Z,49.50
2018-03-24T16:46:05.057Z,49.60
2018-03-24T16:48:34.483Z,50.20
2018-03-24T16:51:02.901Z,50.20
2018-03-24T16:53:31.275Z,50.50
2018-03-24T16:56:00.659Z,50.60
2018-03-24T16:58:29.446Z,51.30
2018-03-24T17:00:58.938Z,54.10
2018-03-24T17:03:26.891Z,54.60
2018-03-24T17:05:55.680Z,55.40
2018-03-24T17:08:23.886Z,55.30
2018-03-24T17:10:52.995Z,55.70
2018-03-24T17:13:21.192Z,55.20
2018-03-24T17:15:50.326Z,55.90
2018-03-24T17:18:19.369Z,55.80
2018-03-24T17:20:48.824Z,56.60
2018-03-24T17:23:17.301Z,57.30
2018-03-24T17:25:45.809Z,57.60
2018-03-24T17:28:14.060Z,58.40
2018-03-24T17:30:42.231Z,59.70
2018-03-24T17:33:10.653Z,60.00
2018-03-24T17:35:38.897Z,60.40
2018-03-24T17:38:07.390Z,61.30
2018-03-24T17:40:35.498Z,62.00
2018-03-24T17:43:04.360Z,62.60
2018-03-24T17:45:32.895Z,62.60
2018-03-24T17:48:00.464Z,63.30
2018-03-24T17:50:28.126Z,63.70
2018-03-24T17:52:55.932Z,64.50
2018-03-24T17:55:24.507Z,64.60
2018-03-24T17:57:52.996Z,65.40
2018-03-24T18:00:20.577Z,65.40
2018-03-24T18:02:48.231Z,65.80
2018-03-24T18:05:15.825Z,66.10
2018-03-24T18:07:43.844Z,66.70
2018-03-24T18:10:11.619Z,67.00
2018-03-24T18:12:39.224Z,67.00
2018-03-24T18:15:08.254Z,67.00
2018-03-24T18:17:35.847Z,66.80
2018-03-24T18:20:03.445Z,66.70
2018-03-24T18:22:31.007Z,67.10
2018-03-24T18:24:59.080Z,67.30
2018-03-24T18:27:27.586Z,67.50
2018-03-24T18:29:56.002Z,67.80
2018-03-24T18:32:24.337Z,67.20
2018-03-24T18:34:52.284Z,66.60
2018-03-24T18:37:20.052Z,66.40
2018-03-24T18:39:47.595Z,66.90
2018-03-24T18:42:15.153Z,66.50
2018-03-24T18:44:42.949Z,66.30
2018-03-24T18:47:10.508Z,66.50
2018-03-24T18:49:38.104Z,67.10
2018-03-24T18:52:06.448Z,66.20
2018-03-24T18:54:33.991Z,66.90
2018-03-24T18:57:01.559Z,65.70
2018-03-24T18:59:29.129Z,66.20
2018-03-24T19:01:57.078Z,66.30
2018-03-24T19:04:25.726Z,66.00
2018-03-24T19:06:54.855Z,67.00
2018-03-24T19:09:22.653Z,66.80
2018-03-24T19:11:50.335Z,66.80
2018-03-24T19:14:17.890Z,66.60
2018-03-24T19:16:46.544Z,66.50
2018-03-24T19:19:14.569Z,66.50
2018-03-24T19:21:43.787Z,66.60
2018-03-24T19:24:12.291Z,67.20
2018-03-24T19:26:40.721Z,66.70
2018-03-24T19:29:09.212Z,66.10
2018-03-24T19:31:37.319Z,65.70
2018-03-24T19:34:05.128Z,66.80
2018-03-24T19:36:33.090Z,66.80
2018-03-24T19:39:01.529Z,67.10
2018-03-24T19:41:29.380Z,68.00
2018-03-24T19:43:57.517Z,68.60
2018-03-24T19:46:25.236Z,68.50
2018-03-24T19:48:55.627Z,69.00
2018-03-24T19:51:23.868Z,69.70
2018-03-24T19:53:51.669Z,70.20
2018-03-24T19:56:19.416Z,71.20
2018-03-24T19:58:48.120Z,72.70
2018-03-24T20:01:15.987Z,72.60
2018-03-24T20:03:43.756Z,73.00
2018-03-24T20:06:11.713Z,74.30
2018-03-24T20:08:40.578Z,73.80
2018-03-24T20:11:08.138Z,73.80
2018-03-24T20:13:35.823Z,73.30
2018-03-24T20:16:05.434Z,72.80
2018-03-24T20:18:34.953Z,73.00
2018-03-24T20:21:03.009Z,74.00
2018-03-24T20:23:31.601Z,74.20
2018-03-24T20:26:00.089Z,74.10
2018-03-24T20:28:27.663Z,74.10
2018-03-24T20:30:55.179Z,73.80
2018-03-24T20:33:23.496Z,74.30
2018-03-24T20:35:51.041Z,74.30
2018-03-24T20:38:18.571Z,74.10
2018-03-24T20:40:46.138Z,74.50
2018-03-24T20:43:13.666Z,74.70
2018-03-24T20:45:42.180Z,75.00
2018-03-24T20:48:09.737Z,74.90
2018-03-24T20:50:37.297Z,76.00
2018-03-24T20:53:04.837Z,76.10
2018-03-24T20:55:32.393Z,76.40
2018-03-24T20:58:00.736Z,76.80
2018-03-24T21:00:28.264Z,76.80
2018-03-24T21:02:55.841Z,77.30
2018-03-24T21:05:23.714Z,78.20
2018-03-24T21:07:51.340Z,78.00
2018-03-24T21:10:18.840Z,77.80
2018-03-24T21:12:46.364Z,78.50
2018-03-24T21:15:14.113Z,79.00
2018-03-24T21:17:41.666Z,78.80
2018-03-24T21:20:10.198Z,78.80
2018-03-24T21:22:37.737Z,79.40
2018-03-24T21:25:06.197Z,79.40
2018-03-24T21:27:33.764Z,79.10
2018-03-24T21:30:01.337Z,79.90
2018-03-24T21:32:28.903Z,79.60
2018-03-24T21:34:56.658Z,79.80
2018-03-24T21:37:24.399Z,79.20
2018-03-24T21:39:52.921Z,78.60
2018-03-24T21:42:20.702Z,78.60
2018-03-24T21:44:48.288Z,79.00
2018-03-24T21:47:15.907Z,79.20
2018-03-24T21:49:43.653Z,79.20
2018-03-24T21:52:12.171Z,79.40
2018-03-24T21:54:39.712Z,79.80
2018-03-24T21:57:07.457Z,80.00
2018-03-24T21:59:34.978Z,79.70
2018-03-24T22:02:03.089Z,80.20
2018-03-24T22:04:31.181Z,80.20
2018-03-24T22:06:58.778Z,80.20
2018-03-24T22:09:26.542Z,81.00
2018-03-24T22:11:54.086Z,81.00
2018-03-24T22:14:22.101Z,80.60
2018-03-24T22:16:50.360Z,80.90
2018-03-24T22:19:18.819Z,81.00
2018-03-24T22:21:47.224Z,80.90
2018-03-24T22:24:17.396Z,81.70
2018-03-24T22:26:45.943Z,81.40
2018-03-24T22:29:15.421Z,80.80
2018-03-24T22:31:46.052Z,81.20
2018-03-24T22:34:13.918Z,81.10
2018-03-24T22:36:42.291Z,80.50
2018-03-24T22:39:10.782Z,80.40
2018-03-24T22:41:39.646Z,80.50
2018-03-24T22:44:07.757Z,80.00
2018-03-24T22:46:35.663Z,80.20
2018-03-24T22:49:04.121Z,80.50
2018-03-24T22:51:32.048Z,80.40
2018-03-24T22:54:01.489Z,80.90
2018-03-24T22:56:31.908Z,80.90
2018-03-24T22:59:00.385Z,80.90
2018-03-24T23:01:28.844Z,80.80
2018-03-24T23:03:57.967Z,80.60
2018-03-24T23:06:26.345Z,80.60
2018-03-24T23:08:54.504Z,80.60
2018-03-24T23:11:22.687Z,80.70
2018-03-24T23:13:51.196Z,80.90
2018-03-24T23:16:19.629Z,81.50
2018-03-24T23:18:47.258Z,80.50
2018-03-24T23:21:15.000Z,80.70
2018-03-24T23:23:43.200Z,80.80
2018-03-24T23:26:11.486Z,80.50
2018-03-24T23:28:39.956Z,81.20
2018-03-24T23:31:08.180Z,81.10
2018-03-24T23:33:36.743Z,80.60
2018-03-24T23:36:05.971Z,80.70
2018-03-24T23:38:34.247Z,80.70
2018-03-24T23:41:01.883Z,80.90
2018-03-24T23:43:29.491Z,81.70
2018-03-24T23:45:58.014Z,81.20
2018-03-24T23:48:25.802Z,80.80
2018-03-24T23:50:53.701Z,80.40
2018-03-24T23:53:21.222Z,81.40
2018-03-24T23:55:48.918Z,80.70
2018-03-24T23:58:16.922Z,80.50
